createdAt,value
2018-05-06T00:00:16.416Z,0
2018-05-06T00:01:26.523Z,0
2018-05-06T00:02:36.398Z,0
2018-05-06T00:03:46.526Z,0
2018-05-06T00:04:56.648Z,0
2018-05-06T00:06:06.719Z,0
2018-05-06T00:07:16.544Z,0
2018-05-06T00:08:26.640Z,0
2018-05-06T00:09:36.255Z,0
2018-05-06T00:10:46.551Z,0
2018-05-06T00:11:56.632Z,0
2018-05-06T00:13:06.444Z,0
2018-05-06T00:14:16.099Z,0
2018-05-06T00:15:26.050Z,0
2018-05-06T00:16:36.134Z,0
2018-05-06T00:17:46.221Z,0
2018-05-06T00:18:56.305Z,0
2018-05-06T00:20:06.661Z,0
2018-05-06T00:21:16.786Z,0
2018-05-06T00:22:26.849Z,0
2018-05-06T00:23:36.913Z,0
2018-05-06T00:24:46.977Z,0
2018-05-06T00:25:57.059Z,0
2018-05-06T00:27:07.139Z,0
2018-05-06T00:28:16.951Z,0
2018-05-06T00:29:26.769Z,0
2018-05-06T00:30:37.098Z,0
2018-05-06T00:31:46.904Z,0
2018-05-06T00:32:56.767Z,0
2018-05-06T00:34:06.576Z,0
2018-05-06T00:35:16.383Z,0
2018-05-06T00:36:26.470Z,0
2018-05-06T00:37:36.551Z,0
2018-05-06T00:38:46.454Z,0
2018-05-06T00:39:56.551Z,0
2018-05-06T00:41:06.352Z,0
2018-05-06T00:42:16.443Z,0
2018-05-06T00:43:26.514Z,0
2018-05-06T00:44:36.582Z,0
2018-05-06T00:45:46.389Z,0
2018-05-06T00:46:56.470Z,0
2018-05-06T00:48:06.290Z,0
2018-05-06T00:49:16.413Z,0
2018-05-06T00:50:26.489Z,0
2018-05-06T00:51:36.571Z,0
2018-05-06T00:52:46.656Z,0
2018-05-06T00:53:56.465Z,0
2018-05-06T00:55:06.544Z,0
2018-05-06T00:56:16.626Z,0
2018-05-06T00:57:26.704Z,0
2018-05-06T00:58:36.793Z,0
2018-05-06T00:59:46.897Z,0
2018-05-06T01:00:56.977Z,0
2018-05-06T01:02:07.051Z,0
2018-05-06T01:03:16.873Z,0
2018-05-06T01:04:26.158Z,0
2018-05-06T01:05:35.966Z,0
2018-05-06T01:06:45.780Z,0
2018-05-06T01:07:55.842Z,0
2018-05-06T01:09:05.909Z,0
2018-05-06T01:10:15.996Z,0
2018-05-06T01:11:26.064Z,0
2018-05-06T01:12:36.149Z,0
2018-05-06T01:13:45.964Z,0
2018-05-06T01:14:55.789Z,0
2018-05-06T01:16:05.862Z,0
2018-05-06T01:17:15.667Z,0
2018-05-06T01:18:25.750Z,0
2018-05-06T01:19:36.425Z,0
2018-05-06T01:20:45.982Z,0
2018-05-06T01:21:55.785Z,0
2018-05-06T01:23:05.355Z,0
2018-05-06T01:24:15.514Z,0
2018-05-06T01:25:25.573Z,0
2018-05-06T01:26:35.649Z,0
2018-05-06T01:27:45.191Z,0
2018-05-06T01:28:55.254Z,0
2018-05-06T01:30:05.325Z,0
2018-05-06T01:31:15.197Z,0
2018-05-06T01:32:25.472Z,0
2018-05-06T01:33:35.556Z,0
2018-05-06T01:34:45.627Z,0
2018-05-06T01:35:55.699Z,0
2018-05-06T01:37:05.821Z,0
2018-05-06T01:38:15.890Z,0
2018-05-06T01:39:25.955Z,0
2018-05-06T01:40:35.777Z,0
2018-05-06T01:41:45.595Z,0
2018-05-06T01:42:55.688Z,0
2018-05-06T01:44:05.763Z,0
2018-05-06T01:45:15.837Z,0
2018-05-06T01:46:25.906Z,0
2018-05-06T01:47:35.979Z,0
2018-05-06T01:48:45.788Z,0
2018-05-06T01:49:55.874Z,0
2018-05-06T01:51:05.693Z,0
2018-05-06T01:52:15.770Z,0
2018-05-06T01:53:25.835Z,0
2018-05-06T01:54:35.909Z,0
2018-05-06T01:55:45.737Z,0
2018-05-06T01:56:55.810Z,0
2018-05-06T01:58:05.908Z,0
2018-05-06T01:59:15.727Z,0
2018-05-06T02:00:25.545Z,0
2018-05-06T02:01:35.622Z,0
2018-05-06T02:02:45.691Z,0
2018-05-06T02:03:55.757Z,0
2018-05-06T02:05:05.575Z,0
2018-05-06T02:06:15.681Z,0
2018-05-06T02:07:25.485Z,0
2018-05-06T02:08:35.561Z,0
2018-05-06T02:09:45.632Z,0
2018-05-06T02:10:55.710Z,0
2018-05-06T02:12:05.961Z,0
2018-05-06T02:13:16.037Z,0
2018-05-06T02:14:25.857Z,0
2018-05-06T02:15:35.672Z,0
2018-05-06T02:16:45.741Z,0
2018-05-06T02:17:55.809Z,0
2018-05-06T02:19:05.614Z,0
2018-05-06T02:20:15.684Z,0
2018-05-06T02:21:25.750Z,0
2018-05-06T02:22:35.827Z,0
2018-05-06T02:23:45.954Z,0
2018-05-06T02:24:56.025Z,0
2018-05-06T02:26:14.346Z,0
2018-05-06T02:27:24.165Z,0
2018-05-06T02:28:34.246Z,0
2018-05-06T02:29:44.061Z,0
2018-05-06T02:30:53.883Z,0
2018-05-06T02:32:03.700Z,0
2018-05-06T02:33:13.516Z,0
2018-05-06T02:34:23.643Z,0
2018-05-06T02:35:33.734Z,0
2018-05-06T02:36:43.542Z,0
2018-05-06T02:37:53.688Z,0
2018-05-06T02:39:03.800Z,0
2018-05-06T02:40:13.887Z,0
2018-05-06T02:41:23.981Z,0
2018-05-06T02:42:34.057Z,0
2018-05-06T02:43:43.874Z,0
2018-05-06T02:44:53.973Z,0
2018-05-06T02:46:04.050Z,0
2018-05-06T02:47:14.137Z,0
2018-05-06T02:48:24.216Z,0
2018-05-06T02:49:34.356Z,0
2018-05-06T02:50:44.451Z,0
2018-05-06T02:51:54.519Z,0
2018-05-06T02:53:04.324Z,4
2018-05-06T02:54:14.412Z,4
2018-05-06T02:55:24.224Z,0
2018-05-06T02:56:34.013Z,0
2018-05-06T02:57:44.105Z,4
2018-05-06T02:58:54.210Z,0
2018-05-06T03:00:04.282Z,4
2018-05-06T03:01:14.347Z,4
2018-05-06T03:02:24.444Z,4
2018-05-06T03:34:15.840Z,236
2018-05-06T03:35:25.895Z,260
2018-05-06T03:36:35.953Z,284
2018-05-06T03:37:46.033Z,308
2018-05-06T03:38:55.829Z,336
2018-05-06T03:40:05.367Z,364
2018-05-06T03:41:15.437Z,392
2018-05-06T03:42:24.710Z,420
2018-05-06T03:43:34.800Z,448
2018-05-06T03:44:44.629Z,480
2018-05-06T03:45:54.714Z,512
2018-05-06T03:47:04.771Z,548
2018-05-06T03:48:14.847Z,584
2018-05-06T03:49:24.924Z,616
2018-05-06T03:50:34.978Z,648
2018-05-06T03:51:44.530Z,684
2018-05-06T03:52:54.591Z,720
2018-05-06T03:54:04.763Z,756
2018-05-06T03:55:14.843Z,788
2018-05-06T03:56:24.910Z,828
2018-05-06T03:57:35.032Z,868
2018-05-06T03:58:45.102Z,904
2018-05-06T03:59:55.182Z,940
2018-05-06T04:01:05.243Z,976
2018-05-06T04:02:15.318Z,1016
2018-05-06T04:03:25.413Z,1056
2018-05-06T04:04:35.486Z,1092
2018-05-06T04:05:45.696Z,1136
2018-05-06T04:06:55.515Z,1176
2018-05-06T04:08:05.586Z,1196
2018-05-06T04:09:15.667Z,1248
2018-05-06T04:10:25.755Z,1288
2018-05-06T04:11:35.819Z,1328
2018-05-06T04:12:45.898Z,1368
2018-05-06T04:13:55.184Z,1412
2018-05-06T04:15:04.983Z,1448
2018-05-06T04:16:14.835Z,1492
2018-05-06T04:17:24.909Z,1532
2018-05-06T04:18:34.704Z,1580
2018-05-06T04:19:44.783Z,1628
2018-05-06T04:20:54.595Z,1664
2018-05-06T04:22:04.396Z,3780
2018-05-06T04:23:14.455Z,3260
2018-05-06T04:24:24.288Z,2676
2018-05-06T04:25:34.347Z,2320
2018-05-06T04:26:44.485Z,3508
2018-05-06T04:27:54.612Z,7568
2018-05-06T04:29:04.693Z,3120
2018-05-06T04:30:14.770Z,2400
2018-05-06T04:31:24.612Z,2500
2018-05-06T04:32:34.715Z,3532
2018-05-06T04:33:44.259Z,3144
2018-05-06T04:34:54.361Z,2616
2018-05-06T04:36:04.169Z,3848
2018-05-06T04:37:13.982Z,2436
2018-05-06T04:38:23.533Z,4940
2018-05-06T04:39:33.603Z,7988
2018-05-06T04:40:43.687Z,10360
2018-05-06T04:41:53.771Z,9976
2018-05-06T04:43:03.850Z,9492
2018-05-06T04:44:13.955Z,10936
2018-05-06T04:45:24.222Z,10684
2018-05-06T04:46:34.299Z,11056
2018-05-06T04:47:44.114Z,10880
2018-05-06T04:48:53.941Z,10952
2018-05-06T04:50:03.941Z,11176
2018-05-06T04:51:13.997Z,11232
2018-05-06T04:52:24.082Z,11064
2018-05-06T04:53:33.899Z,11072
2018-05-06T04:54:43.981Z,11424
2018-05-06T04:55:54.066Z,11508
2018-05-06T04:57:04.165Z,11516
2018-05-06T04:58:14.241Z,11640
2018-05-06T04:59:24.123Z,11728
2018-05-06T05:00:33.680Z,11760
2018-05-06T05:01:43.815Z,11720
2018-05-06T05:02:53.631Z,11964
2018-05-06T05:04:03.456Z,12028
2018-05-06T05:05:12.968Z,12028
2018-05-06T05:06:23.027Z,12020
2018-05-06T05:07:32.837Z,12136
2018-05-06T05:08:42.651Z,12240
2018-05-06T05:09:52.773Z,12116
2018-05-06T05:11:02.593Z,12028
2018-05-06T05:12:12.408Z,12184
2018-05-06T05:13:22.518Z,12388
2018-05-06T05:14:32.677Z,12248
2018-05-06T05:15:42.759Z,12092
2018-05-06T05:16:52.576Z,12088
2018-05-06T05:18:02.651Z,12244
2018-05-06T05:19:12.201Z,12140
2018-05-06T05:20:22.012Z,12180
2018-05-06T05:21:32.085Z,12156
2018-05-06T05:22:42.226Z,12056
2018-05-06T05:23:51.786Z,12084
2018-05-06T05:25:01.905Z,12072
2018-05-06T05:26:11.731Z,12108
2018-05-06T05:27:21.536Z,12040
2018-05-06T05:28:31.348Z,11940
2018-05-06T05:29:41.427Z,11944
2018-05-06T05:30:51.522Z,11832
2018-05-06T05:32:01.607Z,11864
2018-05-06T05:33:11.677Z,11752
2018-05-06T05:34:21.837Z,11688
2018-05-06T05:35:32.023Z,11708
2018-05-06T05:36:42.104Z,11636
2018-05-06T05:37:51.926Z,11436
2018-05-06T05:39:01.992Z,11120
2018-05-06T05:40:12.088Z,11080
2018-05-06T05:41:21.903Z,10980
2018-05-06T05:42:31.803Z,10820
2018-05-06T05:43:41.634Z,10684
2018-05-06T05:44:51.785Z,10724
2018-05-06T05:46:01.890Z,10716
2018-05-06T05:47:11.708Z,10628
2018-05-06T05:48:21.558Z,10556
2018-05-06T05:49:31.636Z,10460
2018-05-06T05:50:41.196Z,10280
2018-05-06T05:51:50.747Z,10196
2018-05-06T05:53:00.566Z,10068
2018-05-06T05:54:10.659Z,9828
2018-05-06T05:55:20.480Z,7120
2018-05-06T05:56:30.296Z,3708
2018-05-06T05:57:40.380Z,3444
2018-05-06T05:58:50.216Z,3372
2018-05-06T06:00:00.367Z,3356
2018-05-06T06:01:10.448Z,3360
2018-05-06T06:02:20.329Z,3356
2018-05-06T06:03:30.154Z,3372
2018-05-06T06:04:40.218Z,3372
2018-05-06T06:05:50.307Z,3372
2018-05-06T06:07:00.378Z,3396
2018-05-06T06:08:10.460Z,3432
2018-05-06T06:09:20.538Z,3520
2018-05-06T06:10:30.622Z,3972
2018-05-06T06:11:40.448Z,4504
2018-05-06T06:12:50.312Z,4704
2018-05-06T06:14:00.127Z,4704
2018-05-06T06:15:10.199Z,4680
2018-05-06T06:16:20.291Z,4648
2018-05-06T06:17:30.363Z,4596
2018-05-06T06:18:40.178Z,4556
2018-05-06T06:19:49.988Z,4504
2018-05-06T06:21:00.072Z,4440
2018-05-06T06:22:10.173Z,4404
2018-05-06T06:23:20.260Z,4348
2018-05-06T06:24:30.484Z,4288
2018-05-06T06:25:40.667Z,4212
2018-05-06T06:26:50.757Z,3888
2018-05-06T06:28:00.839Z,3580
2018-05-06T06:29:10.964Z,3792
2018-05-06T06:30:21.037Z,4012
2018-05-06T06:31:31.128Z,4024
2018-05-06T06:32:40.935Z,3996
2018-05-06T06:33:51.004Z,3972
2018-05-06T06:35:00.803Z,3944
2018-05-06T06:36:10.898Z,3932
2018-05-06T06:37:20.991Z,3904
2018-05-06T06:38:31.238Z,3872
2018-05-06T06:39:41.320Z,3772
2018-05-06T06:40:51.439Z,3668
2018-05-06T06:42:01.268Z,3648
2018-05-06T06:43:11.336Z,3644
2018-05-06T06:44:21.403Z,3644
2018-05-06T06:45:31.488Z,3568
2018-05-06T06:46:41.562Z,3588
2018-05-06T06:47:50.585Z,3592
2018-05-06T06:49:00.740Z,3584
2018-05-06T06:50:10.860Z,3580
2018-05-06T06:51:20.940Z,3592
2018-05-06T06:52:31.021Z,3592
2018-05-06T06:53:41.125Z,3612
2018-05-06T06:54:51.217Z,3612
2018-05-06T06:56:01.290Z,3612
2018-05-06T06:57:11.118Z,3624
2018-05-06T06:58:20.924Z,3648
2018-05-06T06:59:30.757Z,3668
2018-05-06T07:00:40.838Z,3676
2018-05-06T07:01:50.682Z,3692
2018-05-06T07:03:00.774Z,3712
2018-05-06T07:04:10.872Z,3736
2018-05-06T07:05:20.963Z,3748
2018-05-06T07:06:31.073Z,3752
2018-05-06T07:07:40.888Z,3776
2018-05-06T07:08:50.707Z,3852
2018-05-06T07:10:00.792Z,3800
2018-05-06T07:11:10.594Z,3840
2018-05-06T07:12:20.736Z,3832
2018-05-06T07:13:30.834Z,3848
2018-05-06T07:14:40.942Z,3880
2018-05-06T07:15:51.015Z,3884
2018-05-06T07:17:00.836Z,3924
2018-05-06T07:18:10.940Z,3920
2018-05-06T07:19:20.921Z,3940
2018-05-06T07:20:31.079Z,3944
2018-05-06T07:21:41.204Z,3972
2018-05-06T07:22:51.289Z,3988
2018-05-06T07:24:01.364Z,3992
2018-05-06T07:25:11.437Z,4012
2018-05-06T07:26:21.513Z,4024
2018-05-06T07:27:31.661Z,4040
2018-05-06T07:28:41.484Z,4060
2018-05-06T07:29:51.685Z,4040
2018-05-06T07:31:01.899Z,4084
2018-05-06T07:32:11.738Z,4084
2018-05-06T07:33:21.825Z,4088
2018-05-06T07:34:31.934Z,4128
2018-05-06T07:35:42.065Z,4136
2018-05-06T07:36:52.247Z,4160
2018-05-06T07:38:02.327Z,4176
2018-05-06T07:39:12.428Z,4220
2018-05-06T07:40:22.514Z,4200
2018-05-06T07:41:32.464Z,4264
2018-05-06T07:42:42.668Z,4236
2018-05-06T07:43:52.501Z,4236
2018-05-06T07:45:02.319Z,4268
2018-05-06T07:46:12.416Z,4280
2018-05-06T07:47:22.262Z,4320
2018-05-06T07:48:32.351Z,4304
2018-05-06T07:49:42.443Z,4340
2018-05-06T07:50:52.530Z,4344
2018-05-06T07:52:02.365Z,4384
2018-05-06T07:53:12.451Z,4368
2018-05-06T07:54:22.580Z,4416
2018-05-06T07:55:32.417Z,4388
2018-05-06T07:56:42.517Z,4408
2018-05-06T07:57:52.358Z,4420
2018-05-06T07:59:02.520Z,4440
2018-05-06T08:00:12.073Z,4440
2018-05-06T08:01:21.896Z,4468
2018-05-06T08:02:31.980Z,4484
2018-05-06T08:03:42.135Z,4484
2018-05-06T08:04:51.957Z,4504
2018-05-06T08:06:02.032Z,4500
2018-05-06T08:07:12.132Z,4512
2018-05-06T08:08:22.281Z,4548
2018-05-06T08:09:32.380Z,4552
2018-05-06T08:10:42.197Z,4552
2018-05-06T08:11:52.046Z,4564
2018-05-06T08:13:01.864Z,4576
2018-05-06T08:14:11.987Z,4588
2018-05-06T08:15:21.842Z,4588
2018-05-06T08:16:32.475Z,4608
2018-05-06T08:17:42.014Z,4620
2018-05-06T08:18:52.108Z,4612
2018-05-06T08:20:02.188Z,4620
2018-05-06T08:21:12.273Z,4636
2018-05-06T08:22:22.356Z,4680
2018-05-06T08:23:32.439Z,4684
2018-05-06T08:24:42.266Z,4656
2018-05-06T08:25:52.361Z,4656
2018-05-06T08:27:01.894Z,4672
2018-05-06T08:28:11.697Z,4688
2018-05-06T08:29:21.781Z,4744
2018-05-06T08:30:31.614Z,4696
2018-05-06T08:31:41.502Z,4712
2018-05-06T08:32:51.341Z,4720
2018-05-06T08:34:01.438Z,4732
2018-05-06T08:35:11.272Z,4744
2018-05-06T08:36:21.116Z,4744
2018-05-06T08:37:31.336Z,4772
2018-05-06T08:38:40.952Z,4784
2018-05-06T08:39:51.070Z,4784
2018-05-06T08:41:00.954Z,4788
2018-05-06T08:42:11.063Z,4792
2018-05-06T08:43:20.904Z,4808
2018-05-06T08:44:30.989Z,4836
2018-05-06T08:45:41.113Z,4832
2018-05-06T08:46:51.371Z,4840
2018-05-06T08:48:01.464Z,4836
2018-05-06T08:49:11.570Z,4880
2018-05-06T08:50:21.385Z,4900
2018-05-06T08:51:31.584Z,4892
2018-05-06T08:52:41.900Z,4920
2018-05-06T08:53:52.029Z,4892
2018-05-06T08:55:02.109Z,4932
2018-05-06T08:56:12.212Z,4936
2018-05-06T08:57:22.283Z,4960
2018-05-06T08:58:32.362Z,4964
2018-05-06T08:59:42.706Z,4992
2018-05-06T09:00:52.975Z,5036
2018-05-06T09:02:03.091Z,5004
2018-05-06T09:03:13.193Z,5012
2018-05-06T09:04:23.279Z,5040
2018-05-06T09:05:33.432Z,5024
2018-05-06T09:06:43.625Z,5044
2018-05-06T09:07:53.725Z,5048
2018-05-06T09:09:03.821Z,5056
2018-05-06T09:10:13.649Z,5080
2018-05-06T09:11:23.770Z,5092
2018-05-06T09:12:33.924Z,5108
2018-05-06T09:13:44.038Z,5128
2018-05-06T09:14:53.877Z,5148
2018-05-06T09:16:04.013Z,5144
2018-05-06T09:17:14.127Z,5164
2018-05-06T09:18:24.264Z,5164
2018-05-06T09:19:34.402Z,5192
2018-05-06T09:20:44.640Z,5196
2018-05-06T09:21:54.473Z,5216
2018-05-06T09:23:04.309Z,5228
2018-05-06T09:24:14.199Z,5264
2018-05-06T09:25:24.588Z,5260
2018-05-06T09:26:34.930Z,5260
2018-05-06T09:27:45.044Z,5252
2018-05-06T09:28:55.166Z,5308
2018-05-06T09:30:05.317Z,5288
2018-05-06T09:31:15.394Z,5312
2018-05-06T09:32:25.525Z,5324
2018-05-06T09:33:35.627Z,5336
2018-05-06T09:34:45.507Z,5336
2018-05-06T09:35:55.617Z,5348
2018-05-06T09:37:05.723Z,5332
2018-05-06T09:38:15.286Z,5368
2018-05-06T09:39:25.502Z,5356
2018-05-06T09:40:35.599Z,5392
2018-05-06T09:41:45.443Z,5412
2018-05-06T09:42:55.551Z,5416
2018-05-06T09:44:05.646Z,5420
2018-05-06T09:45:15.484Z,5452
2018-05-06T09:46:25.576Z,5456
2018-05-06T09:47:35.970Z,5484
2018-05-06T09:48:46.176Z,5520
2018-05-06T09:49:56.319Z,5500
2018-05-06T09:51:06.161Z,5560
2018-05-06T09:52:15.997Z,5524
2018-05-06T09:53:25.841Z,5548
2018-05-06T09:54:35.679Z,5556
2018-05-06T09:55:45.831Z,5564
2018-05-06T09:56:55.910Z,5584
2018-05-06T09:58:06.240Z,5624
2018-05-06T09:59:16.056Z,5596
2018-05-06T10:00:26.177Z,5624
2018-05-06T10:01:36.313Z,5624
2018-05-06T10:02:46.435Z,5644
2018-05-06T10:03:56.545Z,5652
2018-05-06T10:05:06.684Z,5668
2018-05-06T10:06:16.588Z,5692
2018-05-06T10:07:26.599Z,5704
2018-05-06T10:08:36.496Z,5788
2018-05-06T10:09:46.536Z,5732
2018-05-06T10:10:56.718Z,5728
2018-05-06T10:12:06.828Z,5760
2018-05-06T10:13:16.724Z,5772
2018-05-06T10:14:26.721Z,5788
2018-05-06T10:15:36.882Z,5816
2018-05-06T10:16:46.963Z,5816
2018-05-06T10:17:57.076Z,5820
2018-05-06T10:19:07.176Z,5848
2018-05-06T10:20:17.037Z,5856
2018-05-06T10:21:27.127Z,5880
2018-05-06T10:22:37.244Z,5916
2018-05-06T10:23:47.360Z,5888
2018-05-06T10:24:57.482Z,5912
2018-05-06T10:26:07.629Z,5932
2018-05-06T10:27:17.574Z,5940
2018-05-06T10:28:27.720Z,5940
2018-05-06T10:29:37.574Z,5972
2018-05-06T10:30:47.643Z,5976
2018-05-06T10:31:57.733Z,6000
2018-05-06T10:33:07.554Z,6000
2018-05-06T10:34:17.633Z,6028
2018-05-06T10:35:27.789Z,6136
2018-05-06T10:36:37.877Z,6068
2018-05-06T10:37:47.964Z,6016
2018-05-06T10:38:58.055Z,6104
2018-05-06T10:40:08.214Z,6104
2018-05-06T10:41:18.308Z,6128
2018-05-06T10:42:28.918Z,6140
2018-05-06T10:43:39.157Z,6148
2018-05-06T10:44:49.403Z,6164
2018-05-06T10:45:59.620Z,6180
2018-05-06T10:47:10.022Z,6184
2018-05-06T10:48:20.392Z,6212
2018-05-06T10:49:30.899Z,6228
2018-05-06T10:50:41.001Z,6256
2018-05-06T10:51:50.866Z,6244
2018-05-06T10:53:00.957Z,6284
2018-05-06T10:54:11.046Z,6268
2018-05-06T10:55:20.866Z,6268
2018-05-06T10:56:30.975Z,6288
2018-05-06T10:57:40.269Z,6292
2018-05-06T10:58:50.371Z,6296
2018-05-06T11:00:00.476Z,6324
2018-05-06T11:01:10.565Z,6344
2018-05-06T11:02:20.378Z,6404
2018-05-06T11:03:29.997Z,6368
2018-05-06T11:04:40.106Z,6408
2018-05-06T11:05:50.186Z,6400
2018-05-06T11:07:00.290Z,6404
2018-05-06T11:08:10.121Z,6448
2018-05-06T11:09:20.267Z,6452
2018-05-06T11:10:31.129Z,6452
2018-05-06T11:11:41.359Z,6460
2018-05-06T11:12:51.449Z,6472
2018-05-06T11:14:01.533Z,6476
2018-05-06T11:15:11.617Z,6496
2018-05-06T11:16:21.710Z,6516
2018-05-06T11:17:31.793Z,6500
2018-05-06T11:18:41.609Z,6508
2018-05-06T11:19:51.698Z,6512
2018-05-06T11:21:01.833Z,6520
2018-05-06T11:22:11.648Z,6528
2018-05-06T11:23:21.754Z,6532
2018-05-06T11:24:31.846Z,6548
2018-05-06T11:25:41.947Z,6504
2018-05-06T11:26:51.815Z,6556
2018-05-06T11:28:01.641Z,6580
2018-05-06T11:29:11.473Z,6576
2018-05-06T11:30:21.609Z,6588
2018-05-06T11:31:31.741Z,6580
2018-05-06T11:32:41.598Z,6588
2018-05-06T11:33:51.499Z,6596
2018-05-06T11:35:01.811Z,6584
2018-05-06T11:36:11.954Z,6580
2018-05-06T11:37:22.059Z,6600
2018-05-06T11:38:31.950Z,6604
2018-05-06T11:39:41.793Z,6620
2018-05-06T11:40:51.907Z,6648
2018-05-06T11:42:02.028Z,6592
2018-05-06T11:43:11.885Z,6580
2018-05-06T11:44:21.722Z,6584
2018-05-06T11:45:31.571Z,6636
2018-05-06T11:46:41.690Z,6624
2018-05-06T11:47:51.817Z,6600
2018-05-06T11:49:01.950Z,6604
2018-05-06T11:50:12.049Z,6604
2018-05-06T11:51:22.245Z,6620
2018-05-06T11:52:32.355Z,6652
2018-05-06T11:53:42.456Z,6624
2018-05-06T11:54:52.528Z,6628
2018-05-06T11:56:02.668Z,6656
2018-05-06T11:57:12.758Z,6696
2018-05-06T11:58:22.859Z,6652
2018-05-06T11:59:33.185Z,6668
2018-05-06T12:00:43.335Z,6676
2018-05-06T12:01:53.432Z,6664
2018-05-06T12:03:03.551Z,6660
2018-05-06T12:04:13.653Z,6660
2018-05-06T12:05:23.773Z,6692
2018-05-06T12:06:33.880Z,6688
2018-05-06T12:07:44.037Z,6604
2018-05-06T12:08:54.378Z,6652
2018-05-06T12:10:04.693Z,6656
2018-05-06T12:11:15.004Z,6652
2018-05-06T12:12:25.097Z,6668
2018-05-06T12:13:35.206Z,6648
2018-05-06T12:14:45.048Z,6632
2018-05-06T12:15:55.234Z,6660
2018-05-06T12:17:05.333Z,6620
2018-05-06T12:18:15.151Z,6628
2018-05-06T12:19:25.262Z,6620
2018-05-06T12:20:35.106Z,6604
2018-05-06T12:21:44.930Z,6624
2018-05-06T12:22:55.015Z,6600
2018-05-06T12:24:05.195Z,6620
2018-05-06T12:25:15.456Z,6624
2018-05-06T12:26:25.554Z,6576
2018-05-06T12:27:35.397Z,6556
2018-05-06T12:28:45.502Z,6544
2018-05-06T12:29:55.600Z,6528
2018-05-06T12:31:05.231Z,6504
2018-05-06T12:32:15.065Z,6520
2018-05-06T12:33:25.228Z,6496
2018-05-06T12:34:35.143Z,6464
2018-05-06T12:35:44.892Z,6468
2018-05-06T12:36:54.973Z,6444
2018-05-06T12:38:05.097Z,6424
2018-05-06T12:39:14.950Z,6420
2018-05-06T12:40:24.788Z,6396
2018-05-06T12:41:34.638Z,6396
2018-05-06T12:42:44.473Z,6388
2018-05-06T12:43:54.572Z,6392
2018-05-06T12:45:04.718Z,6360
2018-05-06T12:46:14.519Z,6328
2018-05-06T12:47:24.611Z,6340
2018-05-06T12:48:34.506Z,6344
2018-05-06T12:49:44.604Z,6320
2018-05-06T12:50:54.705Z,6312
2018-05-06T12:52:04.323Z,6308
2018-05-06T12:53:14.428Z,6264
2018-05-06T12:54:24.593Z,6276
2018-05-06T12:55:34.673Z,6228
2018-05-06T12:56:44.751Z,6200
2018-05-06T12:57:54.582Z,6216
2018-05-06T12:59:04.678Z,6212
2018-05-06T13:00:14.540Z,6220
2018-05-06T13:01:24.626Z,6196
2018-05-06T13:02:34.813Z,6160
2018-05-06T13:03:44.899Z,6160
2018-05-06T13:04:57.705Z,6132
2018-05-06T13:06:12.753Z,6144
2018-05-06T13:07:28.008Z,6112
2018-05-06T13:08:41.902Z,6088
2018-05-06T13:09:56.420Z,6192
2018-05-06T13:11:13.739Z,6080
2018-05-06T13:12:27.936Z,6080
2018-05-06T13:13:41.818Z,6044
2018-05-06T13:14:55.551Z,6028
2018-05-06T13:16:13.083Z,6024
2018-05-06T13:17:25.999Z,6036
2018-05-06T13:18:37.374Z,5988
2018-05-06T13:19:50.771Z,5948
2018-05-06T13:21:04.880Z,5960
2018-05-06T13:22:19.209Z,5944
2018-05-06T13:23:33.240Z,5916
2018-05-06T13:24:46.412Z,5924
2018-05-06T13:25:58.864Z,5880
2018-05-06T13:27:11.816Z,5868
2018-05-06T13:28:26.210Z,5904
2018-05-06T13:29:39.319Z,5844
2018-05-06T13:30:51.357Z,5824
2018-05-06T13:32:07.316Z,5820
2018-05-06T13:33:21.511Z,5796
2018-05-06T13:34:34.156Z,5784
2018-05-06T13:35:47.558Z,5772
2018-05-06T13:37:01.646Z,5752
2018-05-06T13:38:15.496Z,5768
2018-05-06T13:39:29.657Z,5708
2018-05-06T13:40:45.139Z,5712
2018-05-06T13:41:59.811Z,5688
2018-05-06T13:43:13.257Z,5672
2018-05-06T13:44:26.962Z,5632
2018-05-06T13:45:42.318Z,5628
2018-05-06T13:46:57.519Z,5616
2018-05-06T13:48:14.462Z,5604
2018-05-06T13:49:28.464Z,5576
2018-05-06T13:50:42.116Z,5596
2018-05-06T13:51:54.113Z,5544
2018-05-06T13:53:07.169Z,5516
2018-05-06T13:54:19.786Z,5496
2018-05-06T13:55:33.930Z,5492
2018-05-06T13:56:48.063Z,5468
2018-05-06T13:57:58.806Z,5468
2018-05-06T13:59:08.418Z,5484
2018-05-06T14:00:20.328Z,5452
2018-05-06T14:01:32.176Z,5408
2018-05-06T14:02:43.276Z,5396
2018-05-06T14:03:54.708Z,5388
2018-05-06T14:05:08.719Z,5384
2018-05-06T14:06:24.048Z,5364
2018-05-06T14:07:38.615Z,5340
2018-05-06T14:08:52.172Z,5308
2018-05-06T14:10:03.408Z,5292
2018-05-06T14:11:13.237Z,5268
2018-05-06T14:12:24.892Z,5268
2018-05-06T14:13:37.644Z,5260
2018-05-06T14:14:52.939Z,5256
2018-05-06T14:16:07.472Z,5192
2018-05-06T14:17:21.330Z,5160
2018-05-06T14:18:35.260Z,5140
2018-05-06T14:19:48.625Z,5136
2018-05-06T14:21:00.439Z,5096
2018-05-06T14:22:12.286Z,5084
2018-05-06T14:23:23.966Z,5072
2018-05-06T14:24:37.773Z,5052
2018-05-06T14:25:51.873Z,5036
2018-05-06T14:27:04.863Z,5008
2018-05-06T14:28:17.551Z,4948
2018-05-06T14:29:29.953Z,4932
2018-05-06T14:30:41.546Z,4880
2018-05-06T14:31:54.853Z,4888
2018-05-06T14:33:08.207Z,4880
2018-05-06T14:34:20.932Z,4868
2018-05-06T14:35:32.246Z,4840
2018-05-06T14:36:45.071Z,4824
2018-05-06T14:37:58.514Z,4796
2018-05-06T14:39:09.149Z,4760
2018-05-06T14:40:19.265Z,4776
2018-05-06T14:41:29.349Z,4748
2018-05-06T14:42:39.471Z,4728
2018-05-06T14:43:49.374Z,4720
2018-05-06T14:44:59.514Z,4700
2018-05-06T14:46:09.620Z,4680
2018-05-06T14:47:19.724Z,4660
2018-05-06T14:48:30.082Z,4640
2018-05-06T14:49:40.348Z,4628
2018-05-06T14:50:50.197Z,4588
2018-05-06T14:52:00.302Z,4572
2018-05-06T14:53:10.399Z,4568
2018-05-06T14:54:20.257Z,4536
2018-05-06T14:55:30.418Z,4516
2018-05-06T14:56:40.745Z,4508
2018-05-06T14:57:50.877Z,4488
2018-05-06T14:59:00.981Z,4472
2018-05-06T15:00:11.105Z,4460
2018-05-06T15:01:20.927Z,4448
2018-05-06T15:02:31.044Z,4424
2018-05-06T15:03:41.252Z,4400
2018-05-06T15:04:51.424Z,4372
2018-05-06T15:06:01.516Z,4372
2018-05-06T15:07:11.613Z,4348
2018-05-06T15:08:21.721Z,4328
2018-05-06T15:09:31.825Z,4320
2018-05-06T15:10:42.357Z,4284
2018-05-06T15:11:52.530Z,4264
2018-05-06T15:13:02.384Z,4248
2018-05-06T15:14:12.467Z,4248
2018-05-06T15:15:22.571Z,4220
2018-05-06T15:16:32.435Z,4212
2018-05-06T15:17:42.540Z,4184
2018-05-06T15:18:52.671Z,4152
2018-05-06T15:20:02.503Z,4132
2018-05-06T15:21:12.369Z,4104
2018-05-06T15:22:22.525Z,4096
2018-05-06T15:23:32.627Z,4080
2018-05-06T15:24:42.519Z,4044
2018-05-06T15:25:52.621Z,4036
2018-05-06T15:27:02.701Z,4012
2018-05-06T15:28:12.544Z,3988
2018-05-06T15:29:22.639Z,3968
2018-05-06T15:30:32.740Z,3944
2018-05-06T15:31:42.854Z,3920
2018-05-06T15:32:52.717Z,3908
2018-05-06T15:34:02.846Z,3888
2018-05-06T15:35:12.965Z,3872
2018-05-06T15:36:23.060Z,3864
2018-05-06T15:37:33.175Z,3816
2018-05-06T15:38:42.986Z,3800
2018-05-06T15:39:53.050Z,3780
2018-05-06T15:41:03.366Z,3776
2018-05-06T15:42:13.490Z,3736
2018-05-06T15:43:23.587Z,3736
2018-05-06T15:44:33.706Z,3716
2018-05-06T15:45:43.554Z,3692
2018-05-06T15:46:53.374Z,3668
2018-05-06T15:48:03.285Z,3620
2018-05-06T15:49:13.387Z,3628
2018-05-06T15:50:23.914Z,3596
2018-05-06T15:51:34.301Z,3572
2018-05-06T15:52:44.396Z,3568
2018-05-06T15:53:54.558Z,3524
2018-05-06T15:55:04.398Z,3508
2018-05-06T15:56:14.526Z,3476
2018-05-06T15:57:24.662Z,3456
2018-05-06T15:58:34.767Z,3440
2018-05-06T15:59:44.947Z,3400
2018-05-06T16:00:55.058Z,3372
2018-05-06T16:02:04.880Z,3332
2018-05-06T16:03:15.010Z,3308
2018-05-06T16:04:25.108Z,3284
2018-05-06T16:05:35.244Z,3248
2018-05-06T16:06:45.521Z,3220
2018-05-06T16:07:55.369Z,3180
2018-05-06T16:09:05.511Z,3160
2018-05-06T16:10:15.644Z,3124
2018-05-06T16:11:25.831Z,3092
2018-05-06T16:12:35.933Z,3044
2018-05-06T16:13:46.022Z,3000
2018-05-06T16:14:56.112Z,2960
2018-05-06T16:16:06.218Z,2908
2018-05-06T16:17:16.331Z,2872
2018-05-06T16:18:26.438Z,2836
2018-05-06T16:19:36.535Z,2792
2018-05-06T16:20:46.363Z,2748
2018-05-06T16:21:56.459Z,2704
2018-05-06T16:23:06.547Z,2664